California Hornblower — WDB8632 — position and weather

sailwx.info

Track history (hours):
 
Tides and Currents Weather Stations Pressure Air Temp Water Temp Dewpoint Dewpoint Depression Visibility Wind Speed Wind Dir Waves Ship Positions

California Hornblower

Owner: hornblower cruises and events, san francisco, CA. More information available from US FCC via Universal Licensing System and Coast Guard Vessel Documentation Center.

Last reported at 2017-Oct-22 20:58 UTC. Time now 2017-Oct-22 21:16 UTC.
Position N 37°48' W 122°24'.

Length 54 m; draft 4.8 m.

Type: Passenger vessel. MMSI: 366961920.

Date/timePositionNaut miles runAvg speedWind from/ knotsBaromVisibWave heightAir tempDewpointWater temp
2017-Oct-22 20:58N 37°48' W 122°24'0 0.0
2017-Oct-22 20:30N 37°48' W 122°24'2 4.5
2017-Oct-22 20:01N 37°50' W 122°25'2 4.7
2017-Oct-22 19:31N 37°49' W 122°28'2 5.0
2017-Oct-22 19:01N 37°49' W 122°25'1 2.7
2017-Oct-22 18:27N 37°48' W 122°24'0 0.0
2017-Oct-22 17:58N 37°48' W 122°24'0 0.0
2017-Oct-22 17:30N 37°48' W 122°24'0 0.0
2017-Oct-22 16:56N 37°48' W 122°24'0 0.0
2017-Oct-22 05:54N 37°48' W 122°24'0 0.0
2017-Oct-22 05:30N 37°48' W 122°24'1 1.4
2017-Oct-22 05:01N 37°48' W 122°23'4 7.8
2017-Oct-22 04:30N 37°49' W 122°27'2 4.4
2017-Oct-22 04:00N 37°51' W 122°29'3 5.7
2017-Oct-22 03:31N 37°52' W 122°25'3 5.9
2017-Oct-22 03:01N 37°49' W 122°25'2 3.2
2017-Oct-22 02:31N 37°48' W 122°24'0 0.0
2017-Oct-22 02:00N 37°48' W 122°24'0 0.0
2017-Oct-22 01:30N 37°48' W 122°24'0 0.5
2017-Oct-22 01:01N 37°48' W 122°24'0 0.5
2017-Oct-22 00:31N 37°48' W 122°24'0 0.0
2017-Oct-21 23:58N 37°48' W 122°24'0 0.0
2017-Oct-21 23:30N 37°48' W 122°24'0 0.0
2017-Oct-21 22:09N 37°48' W 122°24'0 0.0
2017-Oct-21 22:00N 37°48' W 122°24'0 0.3
2017-Oct-21 21:30N 37°48' W 122°24'0 0.3
2017-Oct-21 21:00N 37°48' W 122°24'0 0.0
2017-Oct-21 20:30N 37°48' W 122°24'1 2.2
2017-Oct-21 20:00N 37°49' W 122°24'3 6.8
2017-Oct-21 19:30N 37°49' W 122°28'2 4.9
2017-Oct-21 19:00N 37°49' W 122°25'2 3.3
2017-Oct-21 18:30N 37°48' W 122°24'0 0.0
2017-Oct-21 18:00N 37°48' W 122°24'0 0.0
2017-Oct-21 17:30N 37°48' W 122°24'0 0.0
2017-Oct-21 17:00N 37°48' W 122°24'0 0.0
2017-Oct-21 05:35N 37°48' W 122°24'0 0.0
2017-Oct-21 05:31N 37°48' W 122°24'2 4.1
2017-Oct-21 05:00N 37°46' W 122°23'3 6.9
2017-Oct-21 04:30N 37°49' W 122°25'3 6.0
2017-Oct-21 04:00N 37°51' W 122°28'3 5.7
2017-Oct-21 03:30N 37°52' W 122°25'3 6.2
2017-Oct-21 03:00N 37°49' W 122°25'2 3.9
2017-Oct-21 02:30N 37°48' W 122°24'0 0.0
2017-Oct-21 02:00N 37°48' W 122°24'0 0.0
2017-Oct-21 01:30N 37°48' W 122°24'0 0.3
2017-Oct-21 01:00N 37°48' W 122°24'0 0.1
2017-Oct-21 00:31N 37°48' W 122°24'0 0.0
2017-Oct-20 21:18N 37°48' W 122°24'0 0.0
2017-Oct-20 21:00N 37°48' W 122°24'0 1.0
2017-Oct-20 20:30N 37°48' W 122°23'3 6.0
2017-Oct-20 20:00N 37°50' W 122°27'1 1.6
2017-Oct-20 19:30N 37°49' W 122°27'3 5.0
2017-Oct-20 19:00N 37°48' W 122°24'0 0.0
2017-Oct-20 18:26N 37°48' W 122°24'0 0.0
2017-Oct-20 17:53N 37°48' W 122°24'0 0.0
2017-Oct-20 04:33N 37°48' W 122°24'0 0.0
2017-Oct-20 04:30N 37°48' W 122°24'1 1.9
2017-Oct-20 04:00N 37°47' W 122°23'2 4.9
2017-Oct-20 03:30N 37°49' W 122°22'4 7.4
2017-Oct-20 03:00N 37°50' W 122°26'1 1.7
2017-Oct-20 02:30N 37°49' W 122°26'2 4.8
2017-Oct-20 02:00N 37°48' W 122°24'0 0.0
2017-Oct-20 01:27N 37°48' W 122°24'0 0.0
2017-Oct-20 00:57N 37°48' W 122°24'0 0.0
2017-Oct-20 00:23N 37°48' W 122°24'0 0.0
2017-Oct-20 00:00N 37°48' W 122°24'0 0.0
2017-Oct-19 05:33N 37°48' W 122°24'0 0.0
2017-Oct-19 05:31N 37°48' W 122°24'0 0.0
2017-Oct-19 05:01N 37°48' W 122°24'0 0.1
2017-Oct-19 04:30N 37°48' W 122°24'2 4.5
2017-Oct-19 04:00N 37°46' W 122°22'3 6.3
2017-Oct-19 03:31N 37°49' W 122°21'4 7.4
2017-Oct-19 03:01N 37°50' W 122°26'1 1.8
2017-Oct-19 02:31N 37°49' W 122°27'3 5.2
2017-Oct-19 02:01N 37°48' W 122°24'0 0.0
2017-Oct-19 01:31N 37°48' W 122°24'0 0.0
2017-Oct-19 01:01N 37°48' W 122°24'0 0.0
2017-Oct-19 00:30N 37°48' W 122°24'0 0.0
2017-Oct-19 00:00N 37°48' W 122°24'0 0.3
2017-Oct-18 23:31N 37°48' W 122°24'0 0.1
2017-Oct-18 22:05N 37°48' W 122°24'0 0.0
2017-Oct-18 22:01N 37°48' W 122°24'0 0.0
2017-Oct-18 21:30N 37°48' W 122°24'0 0.6
2017-Oct-18 21:01N 37°48' W 122°24'0 0.1
2017-Oct-18 20:31N 37°48' W 122°24'  
2017-Oct-16 05:22N 37°48' W 122°24'0 0.0
2017-Oct-16 04:57N 37°48' W 122°24'0 0.0
2017-Oct-16 04:31N 37°48' W 122°24'2 3.9
2017-Oct-16 04:00N 37°46' W 122°23'3 5.6
2017-Oct-16 03:31N 37°49' W 122°24'3 5.8
2017-Oct-16 03:01N 37°50' W 122°27'1 2.4
2017-Oct-16 02:31N 37°49' W 122°26'2 4.2
2017-Oct-16 02:00N 37°48' W 122°24'0 0.0
2017-Oct-16 01:31N 37°48' W 122°24'0 0.0
2017-Oct-16 00:58N 37°48' W 122°24'0 0.0
2017-Oct-15 22:30N 37°48' W 122°24'0 0.0
2017-Oct-15 21:59N 37°48' W 122°24'0 0.0
2017-Oct-15 21:28N 37°48' W 122°24'0 0.0
2017-Oct-15 20:58N 37°48' W 122°24'0 0.4
2017-Oct-15 20:30N 37°48' W 122°24'1 1.9
2017-Oct-15 20:00N 37°49' W 122°24'3 5.1
2017-Oct-15 19:30N 37°50' W 122°27'1 2.0
2017-Oct-15 19:00N 37°49' W 122°27'2 4.5
2017-Oct-15 18:28N 37°48' W 122°24'0 0.0
2017-Oct-15 17:58N 37°48' W 122°24'0 0.0
2017-Oct-15 17:29N 37°48' W 122°24'0 0.0
2017-Oct-15 17:00N 37°48' W 122°24'0 0.0
2017-Oct-15 06:43N 37°48' W 122°24'0 0.0
2017-Oct-15 06:30N 37°48' W 122°24'0 0.0
2017-Oct-15 06:00N 37°48' W 122°24'0 0.0
2017-Oct-15 05:31N 37°48' W 122°24'1 1.3
2017-Oct-15 05:00N 37°49' W 122°24'3 5.3
2017-Oct-15 04:30N 37°51' W 122°25'2 4.2
2017-Oct-15 04:00N 37°51' W 122°27'2 3.7
2017-Oct-15 03:30N 37°49' W 122°28'3 5.4
2017-Oct-15 03:00N 37°49' W 122°24'1 2.2
2017-Oct-15 02:30N 37°48' W 122°24'0 0.0
2017-Oct-15 02:00N 37°48' W 122°24'0 0.0
2017-Oct-15 01:30N 37°48' W 122°24'0 0.0
2017-Oct-14 20:30N 37°48' W 122°24'1 1.8
2017-Oct-14 20:00N 37°49' W 122°24'3 5.4
2017-Oct-14 19:30N 37°50' W 122°27'1 1.8
2017-Oct-14 19:00N 37°49' W 122°26'2 4.5
2017-Oct-14 18:31N 37°48' W 122°24'0 0.0
2017-Oct-14 18:00N 37°48' W 122°24'0 0.0
2017-Oct-14 17:30N 37°48' W 122°24'0 0.0
2017-Oct-14 05:28N 37°48' W 122°24'2 3.7
2017-Oct-14 05:00N 37°46' W 122°23'3 5.1
2017-Oct-14 04:31N 37°48' W 122°20'0 0.6
2017-Oct-14 04:00N 37°48' W 122°20'3 6.8
2017-Oct-14 03:30N 37°50' W 122°23'3 6.0
2017-Oct-14 03:00N 37°49' W 122°26'2 4.9
2017-Oct-14 02:30N 37°48' W 122°24'0 0.0
2017-Oct-14 02:00N 37°48' W 122°24'0 0.0
2017-Oct-14 01:30N 37°48' W 122°24'0 0.0
2017-Oct-14 01:01N 37°48' W 122°24'0 0.0
2017-Oct-14 00:24N 37°48' W 122°24'0 0.0
2017-Oct-13 23:55N 37°48' W 122°24'0 0.0
2017-Oct-13 23:25N 37°48' W 122°24'0 0.0
2017-Oct-13 22:59N 37°48' W 122°24'0 0.0
2017-Oct-13 21:02N 37°48' W 122°24'0 0.0
2017-Oct-13 21:00N 37°48' W 122°24'1 2.4
2017-Oct-13 20:30N 37°49' W 122°24'2 4.8
2017-Oct-13 20:00N 37°49' W 122°27'1 2.2
2017-Oct-13 19:31N 37°49' W 122°26'2 4.4
2017-Oct-13 19:00N 37°48' W 122°24'0 0.0
2017-Oct-13 18:30N 37°48' W 122°24'0 0.0
2017-Oct-13 04:34N 37°48' W 122°24'0 0.0
2017-Oct-13 04:30N 37°48' W 122°24'1 2.1
2017-Oct-13 04:00N 37°47' W 122°23'2 4.4
2017-Oct-13 03:30N 37°50' W 122°22'2 3.7
2017-Oct-13 03:00N 37°50' W 122°24'2 3.2
2017-Oct-13 02:30N 37°49' W 122°26'2 3.9
2017-Oct-13 01:57N 37°48' W 122°24'0 0.0
2017-Oct-13 01:29N 37°48' W 122°24'0 0.0
2017-Oct-13 00:56N 37°48' W 122°24'  
Track history (hours):
 
Tides and Currents Weather Stations Pressure Air Temp Water Temp Dewpoint Dewpoint Depression Visibility Wind Speed Wind Dir Waves Ship Positions

California Hornblower

Owner: hornblower cruises and events, san francisco, CA. More information available from US FCC via Universal Licensing System and Coast Guard Vessel Documentation Center.

Last reported at 2017-Oct-22 20:58 UTC. Time now 2017-Oct-22 21:16 UTC.
Position N 37°48' W 122°24'.

Length 54 m; draft 4.8 m.

Type: Passenger vessel. MMSI: 366961920.

Date/timePositionNaut miles runAvg speedWind from/ knotsBaromVisibWave heightAir tempDewpointWater temp
2017-Oct-22 20:58N 37°48' W 122°24'0 0.0
2017-Oct-22 20:30N 37°48' W 122°24'2 4.5
2017-Oct-22 20:01N 37°50' W 122°25'2 4.7
2017-Oct-22 19:31N 37°49' W 122°28'2 5.0
2017-Oct-22 19:01N 37°49' W 122°25'1 2.7
2017-Oct-22 18:27N 37°48' W 122°24'0 0.0
2017-Oct-22 17:58N 37°48' W 122°24'0 0.0
2017-Oct-22 17:30N 37°48' W 122°24'0 0.0
2017-Oct-22 16:56N 37°48' W 122°24'0 0.0
2017-Oct-22 05:54N 37°48' W 122°24'0 0.0
2017-Oct-22 05:30N 37°48' W 122°24'1 1.4
2017-Oct-22 05:01N 37°48' W 122°23'4 7.8
2017-Oct-22 04:30N 37°49' W 122°27'2 4.4
2017-Oct-22 04:00N 37°51' W 122°29'3 5.7
2017-Oct-22 03:31N 37°52' W 122°25'3 5.9
2017-Oct-22 03:01N 37°49' W 122°25'2 3.2
2017-Oct-22 02:31N 37°48' W 122°24'0 0.0
2017-Oct-22 02:00N 37°48' W 122°24'0 0.0
2017-Oct-22 01:30N 37°48' W 122°24'0 0.5
2017-Oct-22 01:01N 37°48' W 122°24'0 0.5
2017-Oct-22 00:31N 37°48' W 122°24'0 0.0
2017-Oct-21 23:58N 37°48' W 122°24'0 0.0
2017-Oct-21 23:30N 37°48' W 122°24'0 0.0
2017-Oct-21 22:09N 37°48' W 122°24'0 0.0
2017-Oct-21 22:00N 37°48' W 122°24'0 0.3
2017-Oct-21 21:30N 37°48' W 122°24'0 0.3
2017-Oct-21 21:00N 37°48' W 122°24'0 0.0
2017-Oct-21 20:30N 37°48' W 122°24'1 2.2
2017-Oct-21 20:00N 37°49' W 122°24'3 6.8
2017-Oct-21 19:30N 37°49' W 122°28'2 4.9
2017-Oct-21 19:00N 37°49' W 122°25'2 3.3
2017-Oct-21 18:30N 37°48' W 122°24'0 0.0
2017-Oct-21 18:00N 37°48' W 122°24'0 0.0
2017-Oct-21 17:30N 37°48' W 122°24'0 0.0
2017-Oct-21 17:00N 37°48' W 122°24'0 0.0
2017-Oct-21 05:35N 37°48' W 122°24'0 0.0
2017-Oct-21 05:31N 37°48' W 122°24'2 4.1
2017-Oct-21 05:00N 37°46' W 122°23'3 6.9
2017-Oct-21 04:30N 37°49' W 122°25'3 6.0
2017-Oct-21 04:00N 37°51' W 122°28'3 5.7
2017-Oct-21 03:30N 37°52' W 122°25'3 6.2
2017-Oct-21 03:00N 37°49' W 122°25'2 3.9
2017-Oct-21 02:30N 37°48' W 122°24'0 0.0
2017-Oct-21 02:00N 37°48' W 122°24'0 0.0
2017-Oct-21 01:30N 37°48' W 122°24'0 0.3
2017-Oct-21 01:00N 37°48' W 122°24'0 0.1
2017-Oct-21 00:31N 37°48' W 122°24'0 0.0
2017-Oct-20 21:18N 37°48' W 122°24'0 0.0
2017-Oct-20 21:00N 37°48' W 122°24'0 1.0
2017-Oct-20 20:30N 37°48' W 122°23'3 6.0
2017-Oct-20 20:00N 37°50' W 122°27'1 1.6
2017-Oct-20 19:30N 37°49' W 122°27'3 5.0
2017-Oct-20 19:00N 37°48' W 122°24'0 0.0
2017-Oct-20 18:26N 37°48' W 122°24'0 0.0
2017-Oct-20 17:53N 37°48' W 122°24'0 0.0
2017-Oct-20 04:33N 37°48' W 122°24'0 0.0
2017-Oct-20 04:30N 37°48' W 122°24'1 1.9
2017-Oct-20 04:00N 37°47' W 122°23'2 4.9
2017-Oct-20 03:30N 37°49' W 122°22'4 7.4
2017-Oct-20 03:00N 37°50' W 122°26'1 1.7
2017-Oct-20 02:30N 37°49' W 122°26'2 4.8
2017-Oct-20 02:00N 37°48' W 122°24'0 0.0
2017-Oct-20 01:27N 37°48' W 122°24'0 0.0
2017-Oct-20 00:57N 37°48' W 122°24'0 0.0
2017-Oct-20 00:23N 37°48' W 122°24'0 0.0
2017-Oct-20 00:00N 37°48' W 122°24'0 0.0
2017-Oct-19 05:33N 37°48' W 122°24'0 0.0
2017-Oct-19 05:31N 37°48' W 122°24'0 0.0
2017-Oct-19 05:01N 37°48' W 122°24'0 0.1
2017-Oct-19 04:30N 37°48' W 122°24'2 4.5
2017-Oct-19 04:00N 37°46' W 122°22'3 6.3
2017-Oct-19 03:31N 37°49' W 122°21'4 7.4
2017-Oct-19 03:01N 37°50' W 122°26'1 1.8
2017-Oct-19 02:31N 37°49' W 122°27'3 5.2
2017-Oct-19 02:01N 37°48' W 122°24'0 0.0
2017-Oct-19 01:31N 37°48' W 122°24'0 0.0
2017-Oct-19 01:01N 37°48' W 122°24'0 0.0
2017-Oct-19 00:30N 37°48' W 122°24'0 0.0
2017-Oct-19 00:00N 37°48' W 122°24'0 0.3
2017-Oct-18 23:31N 37°48' W 122°24'0 0.1
2017-Oct-18 22:05N 37°48' W 122°24'0 0.0
2017-Oct-18 22:01N 37°48' W 122°24'0 0.0
2017-Oct-18 21:30N 37°48' W 122°24'0 0.6
2017-Oct-18 21:01N 37°48' W 122°24'0 0.1
2017-Oct-18 20:31N 37°48' W 122°24'  
2017-Oct-16 05:22N 37°48' W 122°24'0 0.0
2017-Oct-16 04:57N 37°48' W 122°24'0 0.0
2017-Oct-16 04:31N 37°48' W 122°24'2 3.9
2017-Oct-16 04:00N 37°46' W 122°23'3 5.6
2017-Oct-16 03:31N 37°49' W 122°24'3 5.8
2017-Oct-16 03:01N 37°50' W 122°27'1 2.4
2017-Oct-16 02:31N 37°49' W 122°26'2 4.2
2017-Oct-16 02:00N 37°48' W 122°24'0 0.0
2017-Oct-16 01:31N 37°48' W 122°24'0 0.0
2017-Oct-16 00:58N 37°48' W 122°24'0 0.0
2017-Oct-15 22:30N 37°48' W 122°24'0 0.0
2017-Oct-15 21:59N 37°48' W 122°24'0 0.0
2017-Oct-15 21:28N 37°48' W 122°24'0 0.0
2017-Oct-15 20:58N 37°48' W 122°24'0 0.4
2017-Oct-15 20:30N 37°48' W 122°24'1 1.9
2017-Oct-15 20:00N 37°49' W 122°24'3 5.1
2017-Oct-15 19:30N 37°50' W 122°27'1 2.0
2017-Oct-15 19:00N 37°49' W 122°27'2 4.5
2017-Oct-15 18:28N 37°48' W 122°24'0 0.0
2017-Oct-15 17:58N 37°48' W 122°24'0 0.0
2017-Oct-15 17:29N 37°48' W 122°24'0 0.0
2017-Oct-15 17:00N 37°48' W 122°24'0 0.0
2017-Oct-15 06:43N 37°48' W 122°24'0 0.0
2017-Oct-15 06:30N 37°48' W 122°24'0 0.0
2017-Oct-15 06:00N 37°48' W 122°24'0 0.0
2017-Oct-15 05:31N 37°48' W 122°24'1 1.3
2017-Oct-15 05:00N 37°49' W 122°24'3 5.3
2017-Oct-15 04:30N 37°51' W 122°25'2 4.2
2017-Oct-15 04:00N 37°51' W 122°27'2 3.7
2017-Oct-15 03:30N 37°49' W 122°28'3 5.4
2017-Oct-15 03:00N 37°49' W 122°24'1 2.2
2017-Oct-15 02:30N 37°48' W 122°24'0 0.0
2017-Oct-15 02:00N 37°48' W 122°24'0 0.0
2017-Oct-15 01:30N 37°48' W 122°24'0 0.0
2017-Oct-14 20:30N 37°48' W 122°24'1 1.8
2017-Oct-14 20:00N 37°49' W 122°24'3 5.4
2017-Oct-14 19:30N 37°50' W 122°27'1 1.8
2017-Oct-14 19:00N 37°49' W 122°26'2 4.5
2017-Oct-14 18:31N 37°48' W 122°24'0 0.0
2017-Oct-14 18:00N 37°48' W 122°24'0 0.0
2017-Oct-14 17:30N 37°48' W 122°24'0 0.0
2017-Oct-14 05:28N 37°48' W 122°24'2 3.7
2017-Oct-14 05:00N 37°46' W 122°23'3 5.1
2017-Oct-14 04:31N 37°48' W 122°20'0 0.6
2017-Oct-14 04:00N 37°48' W 122°20'3 6.8
2017-Oct-14 03:30N 37°50' W 122°23'3 6.0
2017-Oct-14 03:00N 37°49' W 122°26'2 4.9
2017-Oct-14 02:30N 37°48' W 122°24'0 0.0
2017-Oct-14 02:00N 37°48' W 122°24'0 0.0
2017-Oct-14 01:30N 37°48' W 122°24'0 0.0
2017-Oct-14 01:01N 37°48' W 122°24'0 0.0
2017-Oct-14 00:24N 37°48' W 122°24'0 0.0
2017-Oct-13 23:55N 37°48' W 122°24'0 0.0
2017-Oct-13 23:25N 37°48' W 122°24'0 0.0
2017-Oct-13 22:59N 37°48' W 122°24'0 0.0
2017-Oct-13 21:02N 37°48' W 122°24'0 0.0
2017-Oct-13 21:00N 37°48' W 122°24'1 2.4
2017-Oct-13 20:30N 37°49' W 122°24'2 4.8
2017-Oct-13 20:00N 37°49' W 122°27'1 2.2
2017-Oct-13 19:31N 37°49' W 122°26'2 4.4
2017-Oct-13 19:00N 37°48' W 122°24'0 0.0
2017-Oct-13 18:30N 37°48' W 122°24'0 0.0
2017-Oct-13 04:34N 37°48' W 122°24'0 0.0
2017-Oct-13 04:30N 37°48' W 122°24'1 2.1
2017-Oct-13 04:00N 37°47' W 122°23'2 4.4
2017-Oct-13 03:30N 37°50' W 122°22'2 3.7
2017-Oct-13 03:00N 37°50' W 122°24'2 3.2
2017-Oct-13 02:30N 37°49' W 122°26'2 3.9
2017-Oct-13 01:57N 37°48' W 122°24'0 0.0
2017-Oct-13 01:29N 37°48' W 122°24'0 0.0
2017-Oct-13 00:56N 37°48' W 122°24'  

Dump ship's entire track history